sensor_id;sensor_type;location;lat;lon;timestamp;temperature;humidity
22633;DHT22;11483;55.828;37.488;2023-06-24T00:02:03;18.60;99.90
22633;DHT22;11483;55.828;37.488;2023-06-24T00:04:29;18.60;99.90
22633;DHT22;11483;55.828;37.488;2023-06-24T00:06:55;18.50;99.90
22633;DHT22;11483;55.828;37.488;2023-06-24T00:09:28;18.40;99.90
22633;DHT22;11483;55.828;37.488;2023-06-24T00:11:56;18.30;99.90
22633;DHT22;11483;55.828;37.488;2023-06-24T00:14:23;18.20;99.90
22633;DHT22;11483;55.828;37.488;2023-06-24T00:16:53;18.10;99.90
22633;DHT22;11483;55.828;37.488;2023-06-24T00:19:20;18.10;99.90
22633;DHT22;11483;55.828;37.488;2023-06-24T00:21:47;18.10;99.90
22633;DHT22;11483;55.828;37.488;2023-06-24T00:24:13;18.10;99.90
22633;DHT22;11483;55.828;37.488;2023-06-24T00:26:38;18.10;99.90
22633;DHT22;11483;55.828;37.488;2023-06-24T00:29:05;18.10;99.90
22633;DHT22;11483;55.828;37.488;2023-06-24T00:31:30;18.10;99.90
22633;DHT22;11483;55.828;37.488;2023-06-24T00:33:56;18.00;99.90
22633;DHT22;11483;55.828;37.488;2023-06-24T00:36:22;17.90;99.90
22633;DHT22;11483;55.828;37.488;2023-06-24T00:38:48;17.90;99.90
22633;DHT22;11483;55.828;37.488;2023-06-24T00:41:16;17.90;99.90
22633;DHT22;11483;55.828;37.488;2023-06-24T00:43:44;17.80;99.90
22633;DHT22;11483;55.828;37.488;2023-06-24T00:46:10;17.80;99.90
22633;DHT22;11483;55.828;37.488;2023-06-24T00:48:36;17.80;99.90
22633;DHT22;11483;55.828;37.488;2023-06-24T00:51:02;17.80;99.90
22633;DHT22;11483;55.828;37.488;2023-06-24T00:53:28;17.80;99.90
22633;DHT22;11483;55.828;37.488;2023-06-24T00:55:55;17.70;99.90
22633;DHT22;11483;55.828;37.488;2023-06-24T00:58:28;17.80;99.90
22633;DHT22;11483;55.828;37.488;2023-06-24T01:00:57;17.80;99.90
22633;DHT22;11483;55.828;37.488;2023-06-24T01:03:27;17.80;99.90
22633;DHT22;11483;55.828;37.488;2023-06-24T01:05:56;17.70;99.90
22633;DHT22;11483;55.828;37.488;2023-06-24T01:08:22;17.70;99.90
22633;DHT22;11483;55.828;37.488;2023-06-24T01:10:51;17.70;99.90
22633;DHT22;11483;55.828;37.488;2023-06-24T01:13:18;17.60;99.90
22633;DHT22;11483;55.828;37.488;2023-06-24T01:15:44;17.50;99.90
22633;DHT22;11483;55.828;37.488;2023-06-24T01:18:19;17.50;99.90
22633;DHT22;11483;55.828;37.488;2023-06-24T01:34:57;17.40;99.90
22633;DHT22;11483;55.828;37.488;2023-06-24T01:37:44;17.30;99.90
22633;DHT22;11483;55.828;37.488;2023-06-24T01:42:47;17.20;99.90
22633;DHT22;11483;55.828;37.488;2023-06-24T01:45:19;17.00;99.90
22633;DHT22;11483;55.828;37.488;2023-06-24T01:47:47;17.10;99.90
22633;DHT22;11483;55.828;37.488;2023-06-24T01:50:16;17.10;99.90
22633;DHT22;11483;55.828;37.488;2023-06-24T01:52:45;17.10;99.90
22633;DHT22;11483;55.828;37.488;2023-06-24T01:55:17;17.10;99.90
22633;DHT22;11483;55.828;37.488;2023-06-24T01:57:46;17.20;99.90
22633;DHT22;11483;55.828;37.488;2023-06-24T02:00:14;17.30;99.90
22633;DHT22;11483;55.828;37.488;2023-06-24T02:02:41;17.20;99.90
22633;DHT22;11483;55.828;37.488;2023-06-24T02:05:08;17.30;99.90
22633;DHT22;11483;55.828;37.488;2023-06-24T02:07:35;17.30;99.90
22633;DHT22;11483;55.828;37.488;2023-06-24T02:10:03;17.20;99.90
22633;DHT22;11483;55.828;37.488;2023-06-24T02:12:30;17.20;99.90
22633;DHT22;11483;55.828;37.488;2023-06-24T02:14:57;17.10;99.90
22633;DHT22;11483;55.828;37.488;2023-06-24T02:17:26;17.10;99.90
22633;DHT22;11483;55.828;37.488;2023-06-24T02:19:55;17.10;99.90
22633;DHT22;11483;55.828;37.488;2023-06-24T02:22:22;17.10;99.90
22633;DHT22;11483;55.828;37.488;2023-06-24T02:24:49;17.00;99.90
22633;DHT22;11483;55.828;37.488;2023-06-24T02:27:15;17.10;99.90
22633;DHT22;11483;55.828;37.488;2023-06-24T02:29:42;17.00;99.90
22633;DHT22;11483;55.828;37.488;2023-06-24T02:32:08;16.90;99.90
22633;DHT22;11483;55.828;37.488;2023-06-24T02:34:34;16.80;99.90
22633;DHT22;11483;55.828;37.488;2023-06-24T02:37:00;16.80;99.90
22633;DHT22;11483;55.828;37.488;2023-06-24T02:39:26;17.00;99.90
22633;DHT22;11483;55.828;37.488;2023-06-24T02:41:52;16.90;99.90
22633;DHT22;11483;55.828;37.488;2023-06-24T02:44:18;16.90;99.90
22633;DHT22;11483;55.828;37.488;2023-06-24T02:46:45;16.80;99.90
22633;DHT22;11483;55.828;37.488;2023-06-24T02:49:14;16.80;99.90
22633;DHT22;11483;55.828;37.488;2023-06-24T02:51:41;16.80;99.90
22633;DHT22;11483;55.828;37.488;2023-06-24T02:54:09;16.90;99.90
22633;DHT22;11483;55.828;37.488;2023-06-24T02:56:36;16.90;99.90
22633;DHT22;11483;55.828;37.488;2023-06-24T02:59:07;16.80;99.90
22633;DHT22;11483;55.828;37.488;2023-06-24T03:01:34;16.80;99.90
22633;DHT22;11483;55.828;37.488;2023-06-24T03:04:04;16.70;99.90
22633;DHT22;11483;55.828;37.488;2023-06-24T03:06:31;16.70;99.90
22633;DHT22;11483;55.828;37.488;2023-06-24T03:08:58;16.60;99.90
22633;DHT22;11483;55.828;37.488;2023-06-24T03:11:26;16.50;99.90
22633;DHT22;11483;55.828;37.488;2023-06-24T03:13:53;16.60;99.90
22633;DHT22;11483;55.828;37.488;2023-06-24T03:16:19;16.70;99.90
22633;DHT22;11483;55.828;37.488;2023-06-24T03:18:45;16.60;99.90
22633;DHT22;11483;55.828;37.488;2023-06-24T03:21:11;16.60;99.90
22633;DHT22;11483;55.828;37.488;2023-06-24T03:23:37;16.50;99.90
22633;DHT22;11483;55.828;37.488;2023-06-24T03:26:02;16.40;99.90
22633;DHT22;11483;55.828;37.488;2023-06-24T03:28:29;16.40;99.90
22633;DHT22;11483;55.828;37.488;2023-06-24T03:30:56;16.40;99.90
22633;DHT22;11483;55.828;37.488;2023-06-24T03:33:21;16.40;99.90
22633;DHT22;11483;55.828;37.488;2023-06-24T03:35:47;16.30;99.90
22633;DHT22;11483;55.828;37.488;2023-06-24T03:38:13;16.30;99.90
22633;DHT22;11483;55.828;37.488;2023-06-24T03:40:39;16.30;99.90
22633;DHT22;11483;55.828;37.488;2023-06-24T03:43:05;16.20;99.90
22633;DHT22;11483;55.828;37.488;2023-06-24T03:45:31;16.20;99.90
22633;DHT22;11483;55.828;37.488;2023-06-24T03:47:56;16.30;99.90
22633;DHT22;11483;55.828;37.488;2023-06-24T03:50:22;16.40;99.90
22633;DHT22;11483;55.828;37.488;2023-06-24T03:52:48;16.30;99.90
22633;DHT22;11483;55.828;37.488;2023-06-24T03:55:14;16.30;99.90
22633;DHT22;11483;55.828;37.488;2023-06-24T03:57:40;16.30;99.90
22633;DHT22;11483;55.828;37.488;2023-06-24T04:00:06;16.30;99.90
22633;DHT22;11483;55.828;37.488;2023-06-24T04:02:44;16.40;99.90
22633;DHT22;11483;55.828;37.488;2023-06-24T04:05:10;16.40;99.90
22633;DHT22;11483;55.828;37.488;2023-06-24T04:07:36;16.40;99.90
22633;DHT22;11483;55.828;37.488;2023-06-24T04:10:04;16.30;99.90
22633;DHT22;11483;55.828;37.488;2023-06-24T04:12:35;16.40;99.90
22633;DHT22;11483;55.828;37.488;2023-06-24T04:15:02;16.40;99.90
22633;DHT22;11483;55.828;37.488;2023-06-24T04:17:28;16.30;99.90
22633;DHT22;11483;55.828;37.488;2023-06-24T04:19:55;16.20;99.90
22633;DHT22;11483;55.828;37.488;2023-06-24T04:22:21;16.30;99.90
22633;DHT22;11483;55.828;37.488;2023-06-24T04:24:47;16.40;99.90
22633;DHT22;11483;55.828;37.488;2023-06-24T04:27:12;16.40;99.90
22633;DHT22;11483;55.828;37.488;2023-06-24T04:29:38;16.40;99.90
22633;DHT22;11483;55.828;37.488;2023-06-24T04:32:04;16.50;99.90
22633;DHT22;11483;55.828;37.488;2023-06-24T04:34:30;16.60;99.90
22633;DHT22;11483;55.828;37.488;2023-06-24T04:36:58;16.80;99.90
22633;DHT22;11483;55.828;37.488;2023-06-24T04:39:24;16.70;99.90
22633;DHT22;11483;55.828;37.488;2023-06-24T04:41:50;16.80;99.90
22633;DHT22;11483;55.828;37.488;2023-06-24T04:44:15;16.80;99.90
22633;DHT22;11483;55.828;37.488;2023-06-24T04:46:41;16.80;99.90
22633;DHT22;11483;55.828;37.488;2023-06-24T04:49:07;16.80;99.90
22633;DHT22;11483;55.828;37.488;2023-06-24T04:51:33;16.80;99.90
22633;DHT22;11483;55.828;37.488;2023-06-24T04:53:59;16.80;99.90
22633;DHT22;11483;55.828;37.488;2023-06-24T04:56:26;16.90;99.90
22633;DHT22;11483;55.828;37.488;2023-06-24T04:58:52;16.80;99.90
22633;DHT22;11483;55.828;37.488;2023-06-24T05:01:17;16.70;99.90
22633;DHT22;11483;55.828;37.488;2023-06-24T05:03:43;16.70;99.90
22633;DHT22;11483;55.828;37.488;2023-06-24T05:06:09;16.80;99.90
22633;DHT22;11483;55.828;37.488;2023-06-24T05:08:35;16.90;99.90
22633;DHT22;11483;55.828;37.488;2023-06-24T05:11:01;17.00;99.90
22633;DHT22;11483;55.828;37.488;2023-06-24T05:13:27;16.90;99.90
22633;DHT22;11483;55.828;37.488;2023-06-24T05:15:53;16.90;99.90
22633;DHT22;11483;55.828;37.488;2023-06-24T05:18:19;17.00;99.90
22633;DHT22;11483;55.828;37.488;2023-06-24T05:20:45;17.00;99.90
22633;DHT22;11483;55.828;37.488;2023-06-24T05:23:11;17.00;99.90
22633;DHT22;11483;55.828;37.488;2023-06-24T05:25:36;17.10;99.90
22633;DHT22;11483;55.828;37.488;2023-06-24T05:28:02;16.90;99.90
22633;DHT22;11483;55.828;37.488;2023-06-24T05:30:28;16.80;99.90
22633;DHT22;11483;55.828;37.488;2023-06-24T05:32:54;16.70;99.90
22633;DHT22;11483;55.828;37.488;2023-06-24T05:35:20;16.80;99.90
22633;DHT22;11483;55.828;37.488;2023-06-24T05:37:46;16.90;99.90
22633;DHT22;11483;55.828;37.488;2023-06-24T05:40:12;17.00;99.90
22633;DHT22;11483;55.828;37.488;2023-06-24T05:42:39;17.00;99.90
22633;DHT22;11483;55.828;37.488;2023-06-24T05:45:05;17.00;99.90
22633;DHT22;11483;55.828;37.488;2023-06-24T05:47:32;17.10;99.90
22633;DHT22;11483;55.828;37.488;2023-06-24T05:49:58;17.20;99.90
22633;DHT22;11483;55.828;37.488;2023-06-24T05:52:24;17.40;99.90
22633;DHT22;11483;55.828;37.488;2023-06-24T05:54:50;17.30;99.90
22633;DHT22;11483;55.828;37.488;2023-06-24T05:57:16;17.30;99.90
22633;DHT22;11483;55.828;37.488;2023-06-24T05:59:41;17.20;99.90
22633;DHT22;11483;55.828;37.488;2023-06-24T06:02:07;17.10;99.90
22633;DHT22;11483;55.828;37.488;2023-06-24T06:04:33;17.10;99.90
22633;DHT22;11483;55.828;37.488;2023-06-24T06:06:59;17.10;99.90
22633;DHT22;11483;55.828;37.488;2023-06-24T06:09:25;17.10;99.90
22633;DHT22;11483;55.828;37.488;2023-06-24T06:11:51;17.30;99.90
22633;DHT22;11483;55.828;37.488;2023-06-24T06:14:17;17.30;99.90
22633;DHT22;11483;55.828;37.488;2023-06-24T06:16:42;17.30;99.90
22633;DHT22;11483;55.828;37.488;2023-06-24T06:19:08;17.30;99.90
22633;DHT22;11483;55.828;37.488;2023-06-24T06:21:36;17.30;99.90
22633;DHT22;11483;55.828;37.488;2023-06-24T06:24:02;17.30;99.90
22633;DHT22;11483;55.828;37.488;2023-06-24T06:26:28;17.30;99.90
22633;DHT22;11483;55.828;37.488;2023-06-24T06:28:54;17.30;99.90
22633;DHT22;11483;55.828;37.488;2023-06-24T06:31:20;17.30;99.90
22633;DHT22;11483;55.828;37.488;2023-06-24T06:33:47;17.20;99.90
22633;DHT22;11483;55.828;37.488;2023-06-24T06:36:13;17.10;99.90
22633;DHT22;11483;55.828;37.488;2023-06-24T06:38:40;17.00;99.90
22633;DHT22;11483;55.828;37.488;2023-06-24T06:41:06;17.10;99.90
22633;DHT22;11483;55.828;37.488;2023-06-24T06:43:33;17.10;99.90
22633;DHT22;11483;55.828;37.488;2023-06-24T06:45:59;17.10;99.90
22633;DHT22;11483;55.828;37.488;2023-06-24T06:48:25;17.10;99.90
22633;DHT22;11483;55.828;37.488;2023-06-24T06:50:51;17.20;99.90
22633;DHT22;11483;55.828;37.488;2023-06-24T06:53:18;17.20;99.90
22633;DHT22;11483;55.828;37.488;2023-06-24T06:55:45;17.20;99.90
22633;DHT22;11483;55.828;37.488;2023-06-24T06:58:10;17.30;99.90
22633;DHT22;11483;55.828;37.488;2023-06-24T07:00:36;17.30;99.90
22633;DHT22;11483;55.828;37.488;2023-06-24T07:03:03;17.20;99.90
22633;DHT22;11483;55.828;37.488;2023-06-24T07:05:29;17.20;99.90
22633;DHT22;11483;55.828;37.488;2023-06-24T07:07:54;17.30;99.90
22633;DHT22;11483;55.828;37.488;2023-06-24T07:10:20;17.30;99.90
22633;DHT22;11483;55.828;37.488;2023-06-24T07:12:46;17.30;99.90
22633;DHT22;11483;55.828;37.488;2023-06-24T07:15:12;17.30;99.90
22633;DHT22;11483;55.828;37.488;2023-06-24T07:17:38;17.30;99.90
22633;DHT22;11483;55.828;37.488;2023-06-24T07:20:04;17.40;99.90
22633;DHT22;11483;55.828;37.488;2023-06-24T07:22:30;17.40;99.90
22633;DHT22;11483;55.828;37.488;2023-06-24T07:24:57;17.50;99.90
22633;DHT22;11483;55.828;37.488;2023-06-24T07:27:23;17.60;99.90
22633;DHT22;11483;55.828;37.488;2023-06-24T07:29:49;17.50;99.90
22633;DHT22;11483;55.828;37.488;2023-06-24T07:32:15;17.50;99.90
22633;DHT22;11483;55.828;37.488;2023-06-24T07:34:41;17.50;99.90
22633;DHT22;11483;55.828;37.488;2023-06-24T07:37:07;17.50;99.90
22633;DHT22;11483;55.828;37.488;2023-06-24T07:39:32;17.40;99.90
22633;DHT22;11483;55.828;37.488;2023-06-24T07:41:59;16.90;99.90
22633;DHT22;11483;55.828;37.488;2023-06-24T07:44:24;17.30;99.90
22633;DHT22;11483;55.828;37.488;2023-06-24T07:46:50;17.30;99.90
22633;DHT22;11483;55.828;37.488;2023-06-24T07:49:17;17.40;99.90
22633;DHT22;11483;55.828;37.488;2023-06-24T07:51:43;17.50;99.90
22633;DHT22;11483;55.828;37.488;2023-06-24T07:54:10;17.50;99.90
22633;DHT22;11483;55.828;37.488;2023-06-24T07:56:36;17.50;99.90
22633;DHT22;11483;55.828;37.488;2023-06-24T07:59:02;17.40;99.90
22633;DHT22;11483;55.828;37.488;2023-06-24T08:01:28;17.40;99.90
22633;DHT22;11483;55.828;37.488;2023-06-24T08:03:54;17.50;99.90
22633;DHT22;11483;55.828;37.488;2023-06-24T08:06:20;17.60;99.90
22633;DHT22;11483;55.828;37.488;2023-06-24T08:08:46;17.60;99.90
22633;DHT22;11483;55.828;37.488;2023-06-24T08:11:12;17.70;99.90
22633;DHT22;11483;55.828;37.488;2023-06-24T08:13:39;17.70;99.90
22633;DHT22;11483;55.828;37.488;2023-06-24T08:16:05;17.70;99.90
22633;DHT22;11483;55.828;37.488;2023-06-24T08:18:31;17.60;99.90
22633;DHT22;11483;55.828;37.488;2023-06-24T08:20:57;17.60;99.90
22633;DHT22;11483;55.828;37.488;2023-06-24T08:23:23;17.50;99.90
22633;DHT22;11483;55.828;37.488;2023-06-24T08:25:49;17.50;99.90
22633;DHT22;11483;55.828;37.488;2023-06-24T08:28:14;17.40;99.90
22633;DHT22;11483;55.828;37.488;2023-06-24T08:30:40;17.50;99.90
22633;DHT22;11483;55.828;37.488;2023-06-24T08:33:06;17.50;99.90
22633;DHT22;11483;55.828;37.488;2023-06-24T08:35:32;17.40;99.90
22633;DHT22;11483;55.828;37.488;2023-06-24T08:37:58;17.40;99.90
22633;DHT22;11483;55.828;37.488;2023-06-24T08:40:24;17.40;99.90
22633;DHT22;11483;55.828;37.488;2023-06-24T08:42:49;17.40;99.90
22633;DHT22;11483;55.828;37.488;2023-06-24T08:45:15;17.30;99.90
22633;DHT22;11483;55.828;37.488;2023-06-24T08:47:41;17.30;99.90
22633;DHT22;11483;55.828;37.488;2023-06-24T08:50:11;17.20;99.90
22633;DHT22;11483;55.828;37.488;2023-06-24T08:52:38;17.30;99.90
22633;DHT22;11483;55.828;37.488;2023-06-24T08:55:06;17.30;99.90
22633;DHT22;11483;55.828;37.488;2023-06-24T08:57:36;17.40;99.90
22633;DHT22;11483;55.828;37.488;2023-06-24T09:00:02;17.40;99.90
22633;DHT22;11483;55.828;37.488;2023-06-24T09:02:31;17.50;99.90
22633;DHT22;11483;55.828;37.488;2023-06-24T09:04:58;17.60;99.90
22633;DHT22;11483;55.828;37.488;2023-06-24T09:07:27;17.60;99.90
22633;DHT22;11483;55.828;37.488;2023-06-24T09:09:53;17.80;99.90
22633;DHT22;11483;55.828;37.488;2023-06-24T09:12:19;18.00;99.90
22633;DHT22;11483;55.828;37.488;2023-06-24T09:14:49;17.80;99.90
22633;DHT22;11483;55.828;37.488;2023-06-24T09:17:15;17.80;99.90
22633;DHT22;11483;55.828;37.488;2023-06-24T09:19:41;17.90;99.90
22633;DHT22;11483;55.828;37.488;2023-06-24T09:22:09;17.90;99.90
22633;DHT22;11483;55.828;37.488;2023-06-24T09:24:45;17.90;99.90
22633;DHT22;11483;55.828;37.488;2023-06-24T09:27:13;17.90;99.90
22633;DHT22;11483;55.828;37.488;2023-06-24T09:29:41;17.90;99.90
22633;DHT22;11483;55.828;37.488;2023-06-24T09:32:07;17.90;99.90
22633;DHT22;11483;55.828;37.488;2023-06-24T09:34:34;17.90;99.90
22633;DHT22;11483;55.828;37.488;2023-06-24T09:37:00;17.90;99.90
22633;DHT22;11483;55.828;37.488;2023-06-24T09:39:27;17.80;99.90
22633;DHT22;11483;55.828;37.488;2023-06-24T09:41:57;17.90;99.90
22633;DHT22;11483;55.828;37.488;2023-06-24T09:44:24;18.00;99.90
22633;DHT22;11483;55.828;37.488;2023-06-24T09:46:50;18.10;99.90
22633;DHT22;11483;55.828;37.488;2023-06-24T09:49:16;18.10;99.90
22633;DHT22;11483;55.828;37.488;2023-06-24T09:51:51;18.00;99.90
22633;DHT22;11483;55.828;37.488;2023-06-24T09:54:20;18.00;99.90
22633;DHT22;11483;55.828;37.488;2023-06-24T09:56:50;18.00;99.90
22633;DHT22;11483;55.828;37.488;2023-06-24T09:59:19;18.10;99.90
22633;DHT22;11483;55.828;37.488;2023-06-24T10:01:46;18.30;99.90
22633;DHT22;11483;55.828;37.488;2023-06-24T10:04:17;18.40;99.90
22633;DHT22;11483;55.828;37.488;2023-06-24T10:06:44;18.40;99.90
22633;DHT22;11483;55.828;37.488;2023-06-24T10:09:11;18.20;99.90
22633;DHT22;11483;55.828;37.488;2023-06-24T10:11:39;18.30;99.90
22633;DHT22;11483;55.828;37.488;2023-06-24T10:14:05;18.20;99.90
22633;DHT22;11483;55.828;37.488;2023-06-24T10:16:32;18.20;99.90
22633;DHT22;11483;55.828;37.488;2023-06-24T10:19:02;18.20;99.90
22633;DHT22;11483;55.828;37.488;2023-06-24T10:24:33;18.10;99.90
22633;DHT22;11483;55.828;37.488;2023-06-24T10:27:08;18.10;99.90
22633;DHT22;11483;55.828;37.488;2023-06-24T10:29:37;18.10;99.90
22633;DHT22;11483;55.828;37.488;2023-06-24T10:32:10;18.20;99.90
22633;DHT22;11483;55.828;37.488;2023-06-24T10:37:20;18.40;99.90
22633;DHT22;11483;55.828;37.488;2023-06-24T10:39:54;18.60;99.90
22633;DHT22;11483;55.828;37.488;2023-06-24T10:44:50;18.50;99.90
22633;DHT22;11483;55.828;37.488;2023-06-24T10:47:16;18.40;99.90
22633;DHT22;11483;55.828;37.488;2023-06-24T10:49:42;18.40;99.90
22633;DHT22;11483;55.828;37.488;2023-06-24T10:52:09;18.40;99.90
22633;DHT22;11483;55.828;37.488;2023-06-24T10:54:39;18.60;99.90
22633;DHT22;11483;55.828;37.488;2023-06-24T10:57:06;19.10;99.90
22633;DHT22;11483;55.828;37.488;2023-06-24T10:59:40;19.50;99.90
22633;DHT22;11483;55.828;37.488;2023-06-24T11:02:09;20.10;99.90
22633;DHT22;11483;55.828;37.488;2023-06-24T11:07:09;20.90;99.90
22633;DHT22;11483;55.828;37.488;2023-06-24T11:09:34;20.80;99.90
22633;DHT22;11483;55.828;37.488;2023-06-24T11:12:02;20.70;99.90
22633;DHT22;11483;55.828;37.488;2023-06-24T11:14:28;20.50;99.90
22633;DHT22;11483;55.828;37.488;2023-06-24T11:16:53;20.30;99.90
22633;DHT22;11483;55.828;37.488;2023-06-24T11:19:19;20.30;99.90
22633;DHT22;11483;55.828;37.488;2023-06-24T11:21:45;20.20;99.90
22633;DHT22;11483;55.828;37.488;2023-06-24T11:24:11;20.10;99.90
22633;DHT22;11483;55.828;37.488;2023-06-24T11:26:36;19.90;99.90
22633;DHT22;11483;55.828;37.488;2023-06-24T11:29:11;19.60;99.90
22633;DHT22;11483;55.828;37.488;2023-06-24T11:31:37;19.30;99.90
22633;DHT22;11483;55.828;37.488;2023-06-24T11:34:03;19.10;99.90
22633;DHT22;11483;55.828;37.488;2023-06-24T11:36:29;19.10;99.90
22633;DHT22;11483;55.828;37.488;2023-06-24T11:38:55;19.10;99.90
22633;DHT22;11483;55.828;37.488;2023-06-24T11:41:21;19.20;99.90
22633;DHT22;11483;55.828;37.488;2023-06-24T11:43:47;19.40;99.90
22633;DHT22;11483;55.828;37.488;2023-06-24T11:46:28;19.50;99.90
22633;DHT22;11483;55.828;37.488;2023-06-24T11:49:03;19.50;99.90
22633;DHT22;11483;55.828;37.488;2023-06-24T11:51:28;19.50;99.90
22633;DHT22;11483;55.828;37.488;2023-06-24T11:53:58;19.50;99.90
22633;DHT22;11483;55.828;37.488;2023-06-24T11:56:33;19.80;99.90
22633;DHT22;11483;55.828;37.488;2023-06-24T11:58:59;20.60;99.90
22633;DHT22;11483;55.828;37.488;2023-06-24T12:01:30;21.60;99.90
22633;DHT22;11483;55.828;37.488;2023-06-24T12:03:55;22.20;99.90
22633;DHT22;11483;55.828;37.488;2023-06-24T12:06:21;22.20;99.90
22633;DHT22;11483;55.828;37.488;2023-06-24T12:08:46;21.90;99.90
22633;DHT22;11483;55.828;37.488;2023-06-24T12:11:12;21.50;99.90
22633;DHT22;11483;55.828;37.488;2023-06-24T12:13:38;21.10;99.90
22633;DHT22;11483;55.828;37.488;2023-06-24T12:16:03;20.60;99.90
22633;DHT22;11483;55.828;37.488;2023-06-24T12:18:29;20.40;99.90
22633;DHT22;11483;55.828;37.488;2023-06-24T12:20:55;20.20;99.90
22633;DHT22;11483;55.828;37.488;2023-06-24T12:23:21;20.00;99.90
22633;DHT22;11483;55.828;37.488;2023-06-24T12:25:47;19.90;99.90
22633;DHT22;11483;55.828;37.488;2023-06-24T12:28:12;19.70;99.90
22633;DHT22;11483;55.828;37.488;2023-06-24T12:30:38;19.60;99.90
22633;DHT22;11483;55.828;37.488;2023-06-24T12:33:03;19.50;99.90
22633;DHT22;11483;55.828;37.488;2023-06-24T12:35:29;19.40;99.90
22633;DHT22;11483;55.828;37.488;2023-06-24T12:37:55;19.30;99.90
22633;DHT22;11483;55.828;37.488;2023-06-24T12:40:21;19.10;99.90
22633;DHT22;11483;55.828;37.488;2023-06-24T12:42:46;19.10;99.90
22633;DHT22;11483;55.828;37.488;2023-06-24T12:45:12;19.10;99.90
22633;DHT22;11483;55.828;37.488;2023-06-24T12:47:38;19.00;99.90
22633;DHT22;11483;55.828;37.488;2023-06-24T12:50:04;19.10;99.90
22633;DHT22;11483;55.828;37.488;2023-06-24T12:52:33;19.10;99.90
22633;DHT22;11483;55.828;37.488;2023-06-24T12:54:59;19.20;99.90
22633;DHT22;11483;55.828;37.488;2023-06-24T12:57:24;19.20;99.90
22633;DHT22;11483;55.828;37.488;2023-06-24T12:59:50;19.30;99.90
22633;DHT22;11483;55.828;37.488;2023-06-24T13:02:16;19.30;99.90
22633;DHT22;11483;55.828;37.488;2023-06-24T13:04:41;19.40;99.90
22633;DHT22;11483;55.828;37.488;2023-06-24T13:07:07;19.70;99.90
22633;DHT22;11483;55.828;37.488;2023-06-24T13:09:35;20.30;99.90
22633;DHT22;11483;55.828;37.488;2023-06-24T13:12:00;21.20;99.90
22633;DHT22;11483;55.828;37.488;2023-06-24T13:14:26;21.70;99.90
22633;DHT22;11483;55.828;37.488;2023-06-24T13:16:54;21.80;99.90
22633;DHT22;11483;55.828;37.488;2023-06-24T13:19:19;21.80;99.90
22633;DHT22;11483;55.828;37.488;2023-06-24T13:21:46;21.80;99.90
22633;DHT22;11483;55.828;37.488;2023-06-24T13:24:11;21.90;99.90
22633;DHT22;11483;55.828;37.488;2023-06-24T13:26:38;22.00;99.90
22633;DHT22;11483;55.828;37.488;2023-06-24T13:29:04;22.10;99.90
22633;DHT22;11483;55.828;37.488;2023-06-24T13:31:29;22.10;99.90
22633;DHT22;11483;55.828;37.488;2023-06-24T13:33:55;22.20;99.90
22633;DHT22;11483;55.828;37.488;2023-06-24T13:36:31;22.30;99.90
22633;DHT22;11483;55.828;37.488;2023-06-24T13:38:57;22.50;99.90
22633;DHT22;11483;55.828;37.488;2023-06-24T13:41:23;22.50;99.90
22633;DHT22;11483;55.828;37.488;2023-06-24T13:43:51;22.70;99.90
22633;DHT22;11483;55.828;37.488;2023-06-24T13:46:17;22.90;99.90
22633;DHT22;11483;55.828;37.488;2023-06-24T13:48:42;22.90;99.90
22633;DHT22;11483;55.828;37.488;2023-06-24T13:51:08;22.70;99.90
22633;DHT22;11483;55.828;37.488;2023-06-24T13:53:34;22.70;99.90
22633;DHT22;11483;55.828;37.488;2023-06-24T13:56:00;22.60;99.90
22633;DHT22;11483;55.828;37.488;2023-06-24T13:58:25;22.80;99.90
22633;DHT22;11483;55.828;37.488;2023-06-24T14:00:51;22.80;99.90
22633;DHT22;11483;55.828;37.488;2023-06-24T14:03:17;22.90;99.90
22633;DHT22;11483;55.828;37.488;2023-06-24T14:05:42;23.10;99.90
22633;DHT22;11483;55.828;37.488;2023-06-24T14:08:08;23.40;99.90
22633;DHT22;11483;55.828;37.488;2023-06-24T14:10:34;23.60;99.90
22633;DHT22;11483;55.828;37.488;2023-06-24T14:12:59;24.00;99.90
22633;DHT22;11483;55.828;37.488;2023-06-24T14:15:25;24.00;99.90
22633;DHT22;11483;55.828;37.488;2023-06-24T14:17:51;23.70;99.90
22633;DHT22;11483;55.828;37.488;2023-06-24T14:20:16;23.40;99.90
22633;DHT22;11483;55.828;37.488;2023-06-24T14:22:42;23.10;99.90
22633;DHT22;11483;55.828;37.488;2023-06-24T14:25:08;23.10;99.90
22633;DHT22;11483;55.828;37.488;2023-06-24T14:27:34;24.20;99.90
22633;DHT22;11483;55.828;37.488;2023-06-24T14:30:01;25.00;99.90
22633;DHT22;11483;55.828;37.488;2023-06-24T14:32:28;25.30;99.90
22633;DHT22;11483;55.828;37.488;2023-06-24T14:34:53;25.60;99.90
22633;DHT22;11483;55.828;37.488;2023-06-24T14:37:19;25.60;99.90
22633;DHT22;11483;55.828;37.488;2023-06-24T14:39:45;25.40;99.90
22633;DHT22;11483;55.828;37.488;2023-06-24T14:42:10;25.20;99.90
22633;DHT22;11483;55.828;37.488;2023-06-24T14:44:36;25.00;99.90
22633;DHT22;11483;55.828;37.488;2023-06-24T14:47:02;24.80;99.90
22633;DHT22;11483;55.828;37.488;2023-06-24T14:49:28;24.50;99.90
22633;DHT22;11483;55.828;37.488;2023-06-24T14:51:54;24.10;99.90
22633;DHT22;11483;55.828;37.488;2023-06-24T14:54:19;23.70;99.90
22633;DHT22;11483;55.828;37.488;2023-06-24T15:00:00;23.20;99.90
22633;DHT22;11483;55.828;37.488;2023-06-24T15:02:26;23.50;99.90
22633;DHT22;11483;55.828;37.488;2023-06-24T15:04:52;23.60;99.90
22633;DHT22;11483;55.828;37.488;2023-06-24T15:07:17;24.00;99.90
22633;DHT22;11483;55.828;37.488;2023-06-24T15:09:43;24.50;99.90
22633;DHT22;11483;55.828;37.488;2023-06-24T15:12:09;24.70;99.90
22633;DHT22;11483;55.828;37.488;2023-06-24T15:14:35;24.90;99.90
22633;DHT22;11483;55.828;37.488;2023-06-24T15:17:01;24.80;99.90
22633;DHT22;11483;55.828;37.488;2023-06-24T15:19:27;25.00;99.90
22633;DHT22;11483;55.828;37.488;2023-06-24T15:21:53;25.10;99.90
22633;DHT22;11483;55.828;37.488;2023-06-24T15:24:18;25.00;99.90
22633;DHT22;11483;55.828;37.488;2023-06-24T15:26:44;25.00;99.90
22633;DHT22;11483;55.828;37.488;2023-06-24T15:29:10;25.30;99.90
22633;DHT22;11483;55.828;37.488;2023-06-24T15:31:36;26.10;99.90
22633;DHT22;11483;55.828;37.488;2023-06-24T15:34:02;26.80;99.90
22633;DHT22;11483;55.828;37.488;2023-06-24T15:36:28;27.50;99.90
22633;DHT22;11483;55.828;37.488;2023-06-24T15:38:55;27.50;99.90
22633;DHT22;11483;55.828;37.488;2023-06-24T15:41:21;27.20;99.90
22633;DHT22;11483;55.828;37.488;2023-06-24T15:43:47;27.20;99.90